メインページ
METAR-TAF:

METAR-TAF

空港 :

ベレン, パラー州, ブラジル

緯度: 01-23S, 経度: 048-29W, 海抜: 16m

現時点の気象観測

当レポートは25分前の06:00(UTC)に作成
の風 7kt
気温 25°C
湿度 83%
気圧 1008 hPa
視程10km以上
1,500メートル以下は雲なし、積乱雲なし

METAR: SBBE 200600Z 08007KT CAVOK 25/22 Q1008

時間: 03:25 (06:25 UTC)

予報

当レポートは2時間25分前の04:00(UTC)に作成
予報は20日の 06時(UTC)から 21日の 06時(UTC)まで有効
の風 9kt
視程10km以上
1,500メートル以下は雲なし、積乱雲なし
20日の 11時(UTC)から 20日の 13時(UTC)まで徐々に
の風 8kt
視程10km以上
高度2000ftの雲は散在している
20日の 16時(UTC)から 20日の 18時(UTC)まで徐々に
の風 10kt
高度3000ftの雲は散在している
高度3500ftの雲はほとんどない, 塔状積雲.
間 2から UTC徐々に
東/北東の風 8kt
視程10km以上
1,500メートル以下は雲なし、積乱雲なし

TAF: SBBE 200400Z 2006/2106 08009KT CAVOK TN24/2006Z TX31/2016Z BECMG 2011/2013 09008KT 9999 SCT020 BECMG 2016/2018 36010KT SCT030 FEW035TCU BECMG 2 022/2024 06008KT CAVOK RMK PCQ

4,000以上の空港の気象観測と天気予報(METAR報とTAF報)

利用可能な観測所は地図上に黄色い丸と赤い丸で示す。

丸の上にカーソルを重ねると観測所名を参照できる。

次にクリックすると気象観測と天気予報を参照できる。

マップの切り替え:黒色「×」印の緑ボタンをクリックして拡大、「-」印の緑ボタンをクリックして縮小、緑色の三角印をクリックして隣りの地図に切り替え


METAR-TAF: